Herington, KS (67449)

3:26 PM CDT on August 04, 2015 (GMT -0500)
K-15, Durham | | Change Station
CLOSE
Current Station
Personal Weather Station
Location: Durham, KS
Elevation: 1394 ft
Nearby Weather Stations

Elev 1394 ft 38.49 °N, 97.22 °W | Updated 24 seconds ago

Thunderstorm
Thunderstorm
73.9 °F
Feels Like 70 °F
N
8.7
Wind Variable Wind from SSE
Gusts 9.8 mph

Today
High -- | Low -- °F
--% Chance of Precip.
Yesterday
High -- | Low -- °F
Precip. -- in
6:31 AM 8:35 PM
Waning Gibbous, 75% visible
Pressure 29.92 in
Visibility 10.0 miles
Clouds Scattered Clouds 3400 ft
Scattered Clouds 6000 ft
Mostly Cloudy 9000 ft
Heat Index 70 °F
Dew Point 73 °F
Humidity 97%
Rainfall 0.81 in
Snow Depth Not available.
UV 4.0 out of 12
Pollen 7.00 out of 12
Air Quality Not available.
Flu Activity Not available.
SPECI KFRI 042018Z AUTO 19011KT 10SM SCT034 SCT060 BKN090 25/21 A2992 RMK AO2 LTG DSNT NW-E AND SW RAB00E14DZB14E18

More Conditions Fewer Conditions

Pressure 29.92 in
Visibility 10.0 miles
Clouds Scattered Clouds 3400 ft
Scattered Clouds 6000 ft
Mostly Cloudy 9000 ft
Heat Index 70 °F
Dew Point 73 °F
Humidity 97%
Rainfall 0.81 in
Snow Depth Not available.
UV 4.0 out of 12
Pollen 7.00 out of 12
Air Quality Not available.
Flu Activity Not available.
SPECI KFRI 042018Z AUTO 19011KT 10SM SCT034 SCT060 BKN090 25/21 A2992 RMK AO2 LTG DSNT NW-E AND SW RAB00E14DZB14E18

More Conditions Fewer Conditions

10-Day Weather Forecast

×

Almanac

Astronomy

Aug. 04, 2015 Rise Set
Actual Time
Civil Twilight
Nautical Twilight
Astronomical Twilight
Moon
Length of Visible Light
Length of Day
Tomorrow will be .
, % of the Moon is Illuminated

Today's Extremes

State Highs State Lows

Community

WunderPhotos

Upload Photos

1,843,963 photos uploaded!

WunderBlogs® & News

Nearby

Air Quality

  Air Quality AQ Index Pollutant
Not available.

Snow Depth

Station Depth Elevation

Earthquake Activity

City Distance Mag. Time & Date
Minimum magnitude displayed is 2.5.

Coastal Water Temperatures

Place Temperature

Stations

Nearby Weather Stations

Station Location Temp. Windchill Dew Point Humidity Wind Precip. Elev Updated Type